Time;durP1;ratioP1;P1;durP2;ratioP2;P2;SDS_P1;SDS_P2;PMS_P1;PMS_P2;Temp;Humidity;BMP_temperature;BMP_pressure;BME280_temperature;BME280_humidity;BME280_pressure;Samples;Min_cycle;Max_cycle;Signal;HPM_P1;HPM_P2
2022/10/04 00:00:24;;;;;;;0.00;0.00;;;;;;;;;;5092561;28;20482;-74
2022/10/04 00:02:51;;;;;;;0.00;0.00;;;;;;;;;;5095692;28;20039;-75
2022/10/04 00:05:18;;;;;;;0.63;0.63;;;;;;;;;;5101184;28;20170;-75
2022/10/04 00:07:46;;;;;;;0.00;0.00;;;;;;;;;;5106164;28;20330;-75
2022/10/04 00:10:19;;;;;;;1.23;1.15;;;;;;;;;;5092226;28;20030;-75
2022/10/04 00:12:50;;;;;;;2.97;2.88;;;;;;;;;;5106514;28;20029;-75
2022/10/04 00:15:25;;;;;;;0.00;0.00;;;;;;;;;;5081745;28;20030;-75
2022/10/04 00:18:07;;;;;;;1.17;0.90;;;;;;;;;;5089886;28;20040;-75
2022/10/04 00:20:57;;;;;;;0.10;0.10;;;;;;;;;;5100351;28;20015;-75
2022/10/04 00:23:24;;;;;;;0.00;0.00;;;;;;;;;;5098093;28;20047;-75
2022/10/04 00:25:50;;;;;;;0.00;0.00;;;;;;;;;;5098888;28;20129;-74
2022/10/04 00:28:19;;;;;;;0.00;0.00;;;;;;;;;;5108788;28;20360;-75
2022/10/04 00:31:06;;;;;;;0.00;0.00;;;;;;;;;;5106708;28;20034;-76
2022/10/04 00:33:35;;;;;;;0.00;0.00;;;;;;;;;;5081609;28;20374;-76
2022/10/04 00:36:22;;;;;;;0.00;0.00;;;;;;;;;;5105750;28;20380;-76
2022/10/04 00:39:03;;;;;;;0.00;0.00;;;;;;;;;;5091576;28;20457;-75
2022/10/04 00:41:48;;;;;;;0.00;0.00;;;;;;;;;;5109356;28;20047;-75
2022/10/04 00:44:23;;;;;;;0.00;0.00;;;;;;;;;;5109468;28;20033;-76
2022/10/04 00:46:50;;;;;;;0.00;0.00;;;;;;;;;;5108723;28;20027;-76
2022/10/04 00:49:19;;;;;;;0.00;0.00;;;;;;;;;;5092411;28;20180;-76
2022/10/04 00:52:01;;;;;;;0.00;0.00;;;;;;;;;;5109602;28;20016;-76
2022/10/04 00:54:33;;;;;;;0.00;0.00;;;;;;;;;;5116188;28;20115;-74
2022/10/04 00:57:04;;;;;;;0.00;0.00;;;;;;;;;;5115943;28;20038;-75
2022/10/04 00:59:40;;;;;;;0.00;0.00;;;;;;;;;;5115968;28;20088;-75
2022/10/04 01:02:26;;;;;;;0.00;0.00;;;;;;;;;;5115908;28;20027;-75
2022/10/04 01:04:56;;;;;;;0.00;0.00;;;;;;;;;;5115734;28;20057;-75
2022/10/04 01:07:27;;;;;;;0.00;0.00;;;;;;;;;;5116298;28;20073;-75
2022/10/04 01:09:56;;;;;;;0.00;0.00;;;;;;;;;;5098074;28;20023;-75
2022/10/04 01:12:26;;;;;;;0.00;0.00;;;;;;;;;;5116063;28;20024;-75
2022/10/04 01:14:57;;;;;;;0.00;0.00;;;;;;;;;;5097498;28;20031;-75
2022/10/04 01:17:23;;;;;;;0.00;0.00;;;;;;;;;;5115757;28;20023;-74
2022/10/04 01:19:53;;;;;;;0.20;0.20;;;;;;;;;;5086030;28;20059;-74
2022/10/04 01:22:38;;;;;;;0.00;0.00;;;;;;;;;;5095624;28;20035;-75
2022/10/04 01:25:04;;;;;;;0.00;0.00;;;;;;;;;;5106996;28;20146;-75
2022/10/04 01:27:33;;;;;;;0.00;0.00;;;;;;;;;;5087252;28;20027;-74
2022/10/04 01:29:59;;;;;;;0.00;0.00;;;;;;;;;;5108082;28;21363;-76
2022/10/04 01:32:26;;;;;;;0.00;0.00;;;;;;;;;;5114770;28;20397;-76
2022/10/04 01:34:52;;;;;;;0.00;0.00;;;;;;;;;;5107851;28;20481;-75
2022/10/04 01:37:18;;;;;;;0.00;0.00;;;;;;;;;;5113524;28;20070;-75
2022/10/04 01:39:45;;;;;;;0.00;0.00;;;;;;;;;;5096959;28;20042;-75
2022/10/04 01:42:28;;;;;;;0.00;0.00;;;;;;;;;;5115232;28;20489;-76
2022/10/04 01:45:02;;;;;;;0.00;0.00;;;;;;;;;;5095120;28;20435;-76
2022/10/04 01:47:48;;;;;;;0.00;0.00;;;;;;;;;;5100925;28;20398;-76
2022/10/04 01:50:17;;;;;;;0.00;0.00;;;;;;;;;;5105196;28;20026;-76
2022/10/04 01:52:46;;;;;;;0.00;0.00;;;;;;;;;;5115087;28;20414;-75
2022/10/04 01:55:15;;;;;;;0.00;0.00;;;;;;;;;;5091401;28;20012;-75
2022/10/04 01:57:44;;;;;;;0.47;0.47;;;;;;;;;;5099047;27;20107;-75
2022/10/04 02:00:12;;;;;;;0.00;0.00;;;;;;;;;;5102115;27;20028;-75
2022/10/04 02:02:53;;;;;;;0.00;0.00;;;;;;;;;;5087386;28;20114;-74
2022/10/04 02:05:30;;;;;;;0.00;0.00;;;;;;;;;;5097849;28;20068;-75
2022/10/04 02:08:01;;;;;;;0.00;0.00;;;;;;;;;;5101499;27;20027;-75
2022/10/04 02:10:29;;;;;;;0.10;0.10;;;;;;;;;;5098190;28;20034;-75
2022/10/04 02:12:56;;;;;;;0.75;0.40;;;;;;;;;;5105171;28;20012;-75
2022/10/04 02:15:27;;;;;;;1.25;1.08;;;;;;;;;;5102642;27;20453;-75
2022/10/04 02:17:55;;;;;;;0.00;0.00;;;;;;;;;;5091306;28;20025;-75
2022/10/04 02:20:23;;;;;;;0.00;0.00;;;;;;;;;;5107280;27;20031;-74
2022/10/04 02:22:51;;;;;;;0.10;0.10;;;;;;;;;;5104719;28;20027;-75
2022/10/04 02:25:19;;;;;;;0.00;0.00;;;;;;;;;;5102741;28;20028;-75
2022/10/04 02:27:45;;;;;;;0.45;0.45;;;;;;;;;;5101543;28;20466;-73
2022/10/04 02:30:12;;;;;;;0.00;0.00;;;;;;;;;;5114838;28;20080;-74
2022/10/04 02:32:56;;;;;;;3.92;1.60;;;;;;;;;;5099988;28;20355;-73
2022/10/04 02:35:28;;;;;;;0.00;0.00;;;;;;;;;;5129433;27;20024;-73
2022/10/04 02:37:59;;;;;;;0.20;0.20;;;;;;;;;;5118981;28;20024;-72
2022/10/04 02:40:29;;;;;;;0.00;0.00;;;;;;;;;;5108887;28;20051;-74
2022/10/04 02:43:08;;;;;;;0.57;0.57;;;;;;;;;;5100218;28;20027;-72
2022/10/04 02:45:50;;;;;;;0.98;0.98;;;;;;;;;;5098100;28;20146;-73
2022/10/04 02:48:26;;;;;;;0.52;0.52;;;;;;;;;;5093054;28;20055;-73
2022/10/04 02:50:54;;;;;;;0.00;0.00;;;;;;;;;;5099329;28;20465;-74
2022/10/04 02:53:33;;;;;;;0.00;0.00;;;;;;;;;;5075710;28;20062;-73
2022/10/04 02:56:01;;;;;;;0.00;0.00;;;;;;;;;;5076213;28;20078;-75
2022/10/04 02:58:27;;;;;;;0.00;0.00;;;;;;;;;;5096520;28;20023;-73
2022/10/04 03:00:59;;;;;;;0.03;0.03;;;;;;;;;;5078420;28;20028;-74
2022/10/04 03:03:28;;;;;;;0.00;0.00;;;;;;;;;;5080556;28;20126;-73
2022/10/04 03:05:54;;;;;;;0.00;0.00;;;;;;;;;;5098679;28;20019;-75
2022/10/04 03:08:21;;;;;;;0.00;0.00;;;;;;;;;;5101012;28;20466;-76
2022/10/04 03:10:49;;;;;;;0.00;0.00;;;;;;;;;;5087538;27;20059;-75
2022/10/04 03:13:28;;;;;;;0.00;0.00;;;;;;;;;;5085815;28;20560;-75
2022/10/04 03:15:56;;;;;;;0.10;0.10;;;;;;;;;;5092717;27;20115;-78
2022/10/04 03:18:23;;;;;;;0.00;0.00;;;;;;;;;;5103393;28;20024;-75
2022/10/04 03:20:50;;;;;;;0.00;0.00;;;;;;;;;;5099790;27;20473;-74
2022/10/04 03:23:17;;;;;;;0.00;0.00;;;;;;;;;;5081275;28;20050;-76
2022/10/04 03:26:10;;;;;;;0.00;0.00;;;;;;;;;;5099856;28;20038;-75
2022/10/04 03:28:40;;;;;;;0.00;0.00;;;;;;;;;;5024488;28;20045;-75
2022/10/04 03:31:12;;;;;;;9.88;9.40;;;;;;;;;;5035188;28;20084;-74
2022/10/04 03:33:39;;;;;;;0.00;0.00;;;;;;;;;;5083037;28;20056;-75
2022/10/04 03:36:06;;;;;;;0.00;0.00;;;;;;;;;;5105283;28;20139;-75
2022/10/04 03:38:34;;;;;;;0.00;0.00;;;;;;;;;;5098264;28;21306;-73
2022/10/04 03:41:01;;;;;;;0.00;0.00;;;;;;;;;;5104150;27;20048;-72
2022/10/04 03:43:33;;;;;;;0.00;0.00;;;;;;;;;;5079826;28;20020;-72
2022/10/04 03:46:04;;;;;;;0.00;0.00;;;;;;;;;;5074694;28;20047;-74
2022/10/04 03:48:41;;;;;;;1.30;0.80;;;;;;;;;;5079271;28;20424;-70
2022/10/04 03:51:11;;;;;;;0.00;0.00;;;;;;;;;;5088269;28;20081;-72
2022/10/04 03:53:41;;;;;;;0.00;0.00;;;;;;;;;;5086207;28;20020;-71
2022/10/04 03:56:11;;;;;;;0.00;0.00;;;;;;;;;;5080040;28;20044;-72
2022/10/04 03:58:37;;;;;;;0.35;0.35;;;;;;;;;;5060844;28;20529;-71
2022/10/04 04:01:22;;;;;;;0.00;0.00;;;;;;;;;;5076974;28;20079;-74
2022/10/04 04:03:55;;;;;;;0.00;0.00;;;;;;;;;;5061370;28;20028;-73
2022/10/04 04:06:22;;;;;;;0.00;0.00;;;;;;;;;;5078787;28;20020;-72
2022/10/04 04:08:51;;;;;;;0.00;0.00;;;;;;;;;;5058319;28;20050;-73
2022/10/04 04:11:26;;;;;;;0.00;0.00;;;;;;;;;;5078998;28;20352;-73
2022/10/04 04:14:03;;;;;;;0.00;0.00;;;;;;;;;;5078099;28;20036;-72
2022/10/04 04:16:29;;;;;;;4.63;0.70;;;;;;;;;;5075462;28;20032;-73
2022/10/04 04:18:59;;;;;;;0.13;0.13;;;;;;;;;;5081439;28;20039;-73
2022/10/04 04:21:27;;;;;;;0.00;0.00;;;;;;;;;;5081676;28;20021;-74
2022/10/04 04:23:56;;;;;;;2.78;2.65;;;;;;;;;;5082565;28;20032;-74
2022/10/04 04:26:26;;;;;;;0.52;0.52;;;;;;;;;;5062602;28;20038;-73
2022/10/04 04:28:55;;;;;;;0.00;0.00;;;;;;;;;;5077515;28;20045;-74
2022/10/04 04:31:25;;;;;;;0.00;0.00;;;;;;;;;;5091069;28;20104;-74
2022/10/04 04:33:59;;;;;;;0.00;0.00;;;;;;;;;;5080753;28;20021;-72
2022/10/04 04:36:26;;;;;;;0.13;0.13;;;;;;;;;;5061895;28;20028;-73
2022/10/04 04:41:40;;;;;;;0.10;0.10;;;;;;;;;;5092181;28;20062;-73
2022/10/04 04:44:16;;;;;;;1.23;1.02;;;;;;;;;;5103583;28;20036;-74
2022/10/04 04:46:43;;;;;;;0.40;0.38;;;;;;;;;;5077772;28;20065;-75
2022/10/04 04:49:10;;;;;;;0.00;0.00;;;;;;;;;;5092477;28;20028;-75
2022/10/04 04:51:37;;;;;;;1.77;1.70;;;;;;;;;;5109858;27;20508;-75
2022/10/04 04:54:04;;;;;;;0.22;0.22;;;;;;;;;;5107851;28;20011;-74
2022/10/04 04:56:31;;;;;;;0.93;0.50;;;;;;;;;;5101207;28;20444;-74
2022/10/04 04:59:00;;;;;;;0.00;0.00;;;;;;;;;;5095292;27;20028;-74
2022/10/04 05:01:27;;;;;;;8.32;7.88;;;;;;;;;;5103688;28;20023;-76
2022/10/04 05:04:25;;;;;;;0.00;0.00;;;;;;;;;;5083933;28;20027;-75
2022/10/04 05:07:05;;;;;;;0.00;0.00;;;;;;;;;;5054590;28;20035;-76
2022/10/04 05:09:33;;;;;;;0.00;0.00;;;;;;;;;;5082431;28;20027;-74
2022/10/04 05:12:06;;;;;;;0.10;0.10;;;;;;;;;;5106463;28;20536;-77
2022/10/04 05:14:33;;;;;;;0.13;0.13;;;;;;;;;;5105232;28;20126;-76
2022/10/04 05:17:00;;;;;;;0.32;0.32;;;;;;;;;;5104807;28;20063;-73
2022/10/04 05:19:31;;;;;;;1.08;0.95;;;;;;;;;;5104197;27;20028;-73
2022/10/04 05:22:00;;;;;;;1.02;1.02;;;;;;;;;;5095903;27;20042;-70
2022/10/04 05:24:43;;;;;;;0.00;0.00;;;;;;;;;;5087795;28;20028;-73
2022/10/04 05:27:17;;;;;;;0.70;0.70;;;;;;;;;;5096137;28;20044;-71
2022/10/04 05:30:05;;;;;;;0.88;0.88;;;;;;;;;;5083713;28;20031;-71
2022/10/04 05:32:37;;;;;;;0.00;0.00;;;;;;;;;;5096920;27;20449;-73
2022/10/04 05:35:17;;;;;;;0.35;0.35;;;;;;;;;;5087931;28;20019;-72
2022/10/04 05:38:03;;;;;;;0.38;0.22;;;;;;;;;;5104738;27;20027;-74
2022/10/04 05:40:32;;;;;;;0.20;0.20;;;;;;;;;;5058985;28;20052;-72
2022/10/04 05:42:59;;;;;;;0.20;0.20;;;;;;;;;;5100795;28;20031;-71
2022/10/04 05:45:26;;;;;;;0.00;0.00;;;;;;;;;;5108125;27;20027;-72
2022/10/04 05:47:57;;;;;;;0.15;0.15;;;;;;;;;;5095475;27;20103;-72
2022/10/04 05:50:23;;;;;;;0.00;0.00;;;;;;;;;;5102021;27;20028;-71
2022/10/04 05:52:51;;;;;;;0.00;0.00;;;;;;;;;;5079611;27;20054;-72
2022/10/04 05:55:27;;;;;;;0.00;0.00;;;;;;;;;;5096701;27;20320;-73
2022/10/04 05:58:06;;;;;;;0.10;0.10;;;;;;;;;;5105979;27;20074;-72
2022/10/04 06:00:54;;;;;;;0.05;0.05;;;;;;;;;;5082676;27;20070;-73
2022/10/04 06:03:41;;;;;;;0.00;0.00;;;;;;;;;;5107103;27;20023;-73
2022/10/04 06:06:25;;;;;;;0.00;0.00;;;;;;;;;;5055301;27;20043;-71
2022/10/04 06:09:01;;;;;;;0.00;0.00;;;;;;;;;;5104577;27;20084;-72
2022/10/04 06:11:42;;;;;;;1.20;0.43;;;;;;;;;;5086927;27;20047;-72
2022/10/04 06:14:17;;;;;;;1.17;0.80;;;;;;;;;;5105147;27;20053;-73
2022/10/04 06:16:53;;;;;;;0.00;0.00;;;;;;;;;;5103858;28;20518;-72
2022/10/04 06:19:38;;;;;;;0.57;0.57;;;;;;;;;;5081410;28;20462;-72
2022/10/04 06:22:15;;;;;;;0.20;0.20;;;;;;;;;;5099132;28;20038;-72
2022/10/04 06:24:43;;;;;;;0.00;0.00;;;;;;;;;;5083320;28;20106;-71
2022/10/04 06:27:10;;;;;;;0.45;0.45;;;;;;;;;;5105794;28;20031;-70
2022/10/04 06:29:38;;;;;;;0.00;0.00;;;;;;;;;;5087303;28;20015;-73
2022/10/04 06:32:25;;;;;;;0.30;0.30;;;;;;;;;;5105269;27;20016;-71
2022/10/04 06:34:52;;;;;;;0.00;0.00;;;;;;;;;;5103668;27;20019;-72
2022/10/04 06:37:26;;;;;;;0.00;0.00;;;;;;;;;;5104081;28;20497;-73
2022/10/04 06:40:17;;;;;;;0.00;0.00;;;;;;;;;;5106986;27;20081;-73
2022/10/04 06:42:52;;;;;;;0.00;0.00;;;;;;;;;;5083226;28;20035;-71
2022/10/04 06:45:30;;;;;;;0.00;0.00;;;;;;;;;;5101996;27;20023;-71
2022/10/04 06:48:08;;;;;;;0.00;0.00;;;;;;;;;;5100847;27;20472;-72
2022/10/04 06:50:41;;;;;;;0.52;0.22;;;;;;;;;;5090846;27;20028;-73
2022/10/04 06:53:26;;;;;;;0.00;0.00;;;;;;;;;;5104096;27;20053;-71
2022/10/04 06:56:03;;;;;;;0.00;0.00;;;;;;;;;;5078062;28;20024;-71
2022/10/04 06:58:31;;;;;;;0.00;0.00;;;;;;;;;;5085190;28;20532;-73
2022/10/04 07:01:15;;;;;;;0.52;0.45;;;;;;;;;;5094760;28;20500;-71
2022/10/04 07:04:01;;;;;;;1.15;0.88;;;;;;;;;;5079505;27;20131;-70
2022/10/04 07:06:31;;;;;;;0.00;0.00;;;;;;;;;;5089167;27;20031;-71
2022/10/04 07:09:01;;;;;;;0.00;0.00;;;;;;;;;;5083678;28;20473;-72
2022/10/04 07:11:33;;;;;;;0.00;0.00;;;;;;;;;;5076280;28;20049;-72
2022/10/04 07:14:03;;;;;;;0.00;0.00;;;;;;;;;;5087911;27;20080;-72
2022/10/04 07:16:36;;;;;;;2.85;0.38;;;;;;;;;;5104366;27;20362;-72
2022/10/04 07:19:23;;;;;;;0.00;0.00;;;;;;;;;;5084926;28;20031;-73
2022/10/04 07:21:59;;;;;;;0.00;0.00;;;;;;;;;;5102027;27;20020;-73
2022/10/04 07:24:48;;;;;;;0.00;0.00;;;;;;;;;;5103687;27;20032;-71
2022/10/04 07:27:17;;;;;;;0.00;0.00;;;;;;;;;;5062000;27;20036;-72
2022/10/04 07:29:47;;;;;;;0.00;0.00;;;;;;;;;;5087324;28;20024;-73
2022/10/04 07:32:39;;;;;;;0.00;0.00;;;;;;;;;;5097064;27;20035;-74
2022/10/04 07:35:06;;;;;;;0.00;0.00;;;;;;;;;;5098290;27;20054;-72
2022/10/04 07:37:50;;;;;;;0.00;0.00;;;;;;;;;;5107911;27;20027;-73
2022/10/04 07:40:17;;;;;;;0.00;0.00;;;;;;;;;;5102218;28;20032;-74
2022/10/04 07:42:53;;;;;;;0.30;0.30;;;;;;;;;;5101993;28;20104;-75
2022/10/04 07:45:20;;;;;;;0.00;0.00;;;;;;;;;;5095595;27;20027;-74
2022/10/04 07:47:46;;;;;;;2.90;1.15;;;;;;;;;;5103420;28;20117;-75
2022/10/04 07:50:28;;;;;;;1.67;0.85;;;;;;;;;;5100851;28;20016;-74
2022/10/04 07:53:14;;;;;;;3.67;3.50;;;;;;;;;;5100571;28;20106;-74
2022/10/04 07:55:46;;;;;;;0.10;0.10;;;;;;;;;;5105645;28;20508;-74
2022/10/04 07:58:19;;;;;;;0.00;0.00;;;;;;;;;;5114243;28;20035;-73
2022/10/04 08:00:57;;;;;;;0.47;0.47;;;;;;;;;;5095060;28;20031;-74
2022/10/04 08:03:24;;;;;;;0.88;0.88;;;;;;;;;;5083109;28;20055;-74
2022/10/04 08:05:53;;;;;;;0.32;0.15;;;;;;;;;;5093735;28;20034;-72
2022/10/04 08:08:38;;;;;;;0.00;0.00;;;;;;;;;;5102527;28;20119;-72
2022/10/04 08:11:23;;;;;;;0.00;0.00;;;;;;;;;;5103308;28;20028;-73
2022/10/04 08:14:09;;;;;;;0.00;0.00;;;;;;;;;;5087445;28;20031;-75
2022/10/04 08:16:38;;;;;;;2.17;0.80;;;;;;;;;;5083264;28;20406;-73
2022/10/04 08:19:27;;;;;;;0.00;0.00;;;;;;;;;;5104526;28;20579;-74
2022/10/04 08:22:03;;;;;;;0.00;0.00;;;;;;;;;;5087693;28;20028;-75
2022/10/04 08:24:54;;;;;;;0.00;0.00;;;;;;;;;;5101421;28;20031;-74
2022/10/04 08:27:33;;;;;;;0.70;0.10;;;;;;;;;;5082471;28;20820;-74
2022/10/04 08:30:05;;;;;;;0.43;0.30;;;;;;;;;;5100296;28;20027;-74
2022/10/04 08:32:40;;;;;;;0.00;0.00;;;;;;;;;;5107472;28;20156;-73
2022/10/04 08:35:28;;;;;;;0.40;0.40;;;;;;;;;;5103806;28;20026;-72
2022/10/04 08:38:13;;;;;;;0.10;0.10;;;;;;;;;;5124376;28;20311;-74
2022/10/04 08:40:58;;;;;;;0.00;0.00;;;;;;;;;;5118154;28;20028;-72
2022/10/04 08:43:28;;;;;;;0.95;0.95;;;;;;;;;;5069385;28;20035;-73
2022/10/04 08:46:02;;;;;;;0.00;0.00;;;;;;;;;;5095951;28;20666;-73
2022/10/04 08:48:47;;;;;;;0.00;0.00;;;;;;;;;;5079830;28;20036;-75
2022/10/04 08:51:42;;;;;;;0.00;0.00;;;;;;;;;;5077595;28;20104;-73
2022/10/04 08:54:08;;;;;;;0.13;0.13;;;;;;;;;;5082139;28;20028;-74
2022/10/04 08:56:48;;;;;;;0.20;0.20;;;;;;;;;;5088116;28;20463;-72
2022/10/04 08:59:26;;;;;;;0.10;0.10;;;;;;;;;;5065435;28;20034;-72
2022/10/04 09:02:11;;;;;;;0.00;0.00;;;;;;;;;;5077188;28;20020;-73
2022/10/04 09:04:40;;;;;;;0.00;0.00;;;;;;;;;;5085768;28;20027;-72
2022/10/04 09:07:13;;;;;;;0.00;0.00;;;;;;;;;;5085868;28;20124;-72
2022/10/04 09:09:43;;;;;;;0.80;0.80;;;;;;;;;;5093267;28;20047;-72
2022/10/04 09:12:19;;;;;;;1.65;1.45;;;;;;;;;;5088517;28;20028;-71
2022/10/04 09:14:45;;;;;;;0.00;0.00;;;;;;;;;;5076131;28;20021;-72
2022/10/04 09:17:22;;;;;;;0.00;0.00;;;;;;;;;;5088611;28;20031;-72
2022/10/04 09:19:52;;;;;;;0.25;0.25;;;;;;;;;;5082812;28;20024;-72
2022/10/04 09:22:41;;;;;;;0.00;0.00;;;;;;;;;;5098814;28;20059;-73
2022/10/04 09:25:30;;;;;;;0.00;0.00;;;;;;;;;;5081035;28;20052;-73
2022/10/04 09:27:56;;;;;;;0.52;0.52;;;;;;;;;;5068761;28;20360;-72
2022/10/04 09:30:32;;;;;;;0.00;0.00;;;;;;;;;;5078398;28;20483;-73
2022/10/04 09:33:04;;;;;;;0.52;0.52;;;;;;;;;;5062835;28;20028;-73
2022/10/04 09:35:43;;;;;;;0.00;0.00;;;;;;;;;;5101215;28;20073;-73
2022/10/04 09:38:20;;;;;;;0.10;0.10;;;;;;;;;;5080991;28;20117;-74
2022/10/04 09:41:14;;;;;;;0.15;0.08;;;;;;;;;;5097439;28;20549;-73
2022/10/04 09:43:59;;;;;;;0.00;0.00;;;;;;;;;;5107748;28;20084;-71
2022/10/04 09:46:28;;;;;;;0.00;0.00;;;;;;;;;;5106116;28;20039;-72
2022/10/04 09:49:04;;;;;;;0.10;0.10;;;;;;;;;;5085307;28;20030;-74
2022/10/04 09:51:49;;;;;;;0.00;0.00;;;;;;;;;;5104519;28;20114;-72
2022/10/04 09:54:36;;;;;;;0.00;0.00;;;;;;;;;;5087080;28;20035;-71
2022/10/04 09:57:08;;;;;;;24.10;18.35;;;;;;;;;;5104581;28;20020;-74
2022/10/04 09:59:36;;;;;;;0.00;0.00;;;;;;;;;;5107280;28;20058;-73
2022/10/04 10:02:12;;;;;;;0.00;0.00;;;;;;;;;;5108615;28;20130;-72
2022/10/04 10:04:38;;;;;;;0.52;0.52;;;;;;;;;;5110415;28;20429;-72
2022/10/04 10:07:04;;;;;;;0.10;0.10;;;;;;;;;;5102690;27;20097;-72
2022/10/04 10:15:08;;;;;;;0.00;0.00;;;;;;;;;;5099230;28;20043;-74
2022/10/04 10:17:41;;;;;;;0.00;0.00;;;;;;;;;;5098467;28;20115;-76
2022/10/04 10:20:17;;;;;;;0.10;0.10;;;;;;;;;;5081323;28;20100;-75
2022/10/04 10:23:05;;;;;;;0.00;0.00;;;;;;;;;;5095840;27;20028;-74
2022/10/04 10:25:46;;;;;;;0.00;0.00;;;;;;;;;;5085944;28;20473;-74
2022/10/04 10:28:13;;;;;;;0.22;0.15;;;;;;;;;;5083477;28;20093;-72
2022/10/04 10:30:54;;;;;;;0.00;0.00;;;;;;;;;;5099602;27;20016;-72
2022/10/04 10:33:39;;;;;;;0.20;0.20;;;;;;;;;;5087014;28;20032;-73
2022/10/04 10:36:18;;;;;;;0.00;0.00;;;;;;;;;;5101295;27;20020;-75
2022/10/04 10:38:45;;;;;;;0.00;0.00;;;;;;;;;;5083474;28;20389;-71
2022/10/04 10:41:31;;;;;;;0.00;0.00;;;;;;;;;;5103456;27;20098;-72
2022/10/04 10:44:06;;;;;;;0.00;0.00;;;;;;;;;;5101719;27;20028;-70
2022/10/04 10:46:50;;;;;;;0.00;0.00;;;;;;;;;;5099527;28;20058;-74
2022/10/04 10:49:36;;;;;;;0.00;0.00;;;;;;;;;;5083643;28;20019;-74
2022/10/04 10:52:05;;;;;;;0.00;0.00;;;;;;;;;;5094760;28;20509;-74
2022/10/04 10:54:56;;;;;;;0.15;0.15;;;;;;;;;;5096075;27;20102;-73
2022/10/04 10:57:23;;;;;;;0.00;0.00;;;;;;;;;;5095005;28;20024;-76
2022/10/04 11:00:08;;;;;;;0.15;0.15;;;;;;;;;;5095154;28;20093;-72
2022/10/04 11:02:37;;;;;;;0.05;0.05;;;;;;;;;;5090741;28;20554;-72
2022/10/04 11:05:20;;;;;;;0.00;0.00;;;;;;;;;;5093191;27;20028;-71
2022/10/04 11:07:54;;;;;;;0.50;0.50;;;;;;;;;;5097900;28;20032;-75
2022/10/04 11:10:38;;;;;;;0.10;0.10;;;;;;;;;;5100191;28;20498;-75
2022/10/04 11:13:05;;;;;;;0.00;0.00;;;;;;;;;;5108353;28;20408;-69
2022/10/04 11:15:50;;;;;;;0.00;0.00;;;;;;;;;;5102881;28;20023;-71
2022/10/04 11:18:25;;;;;;;0.00;0.00;;;;;;;;;;5106564;28;20052;-72
2022/10/04 11:21:10;;;;;;;0.43;0.43;;;;;;;;;;5089648;28;20073;-72
2022/10/04 11:23:55;;;;;;;0.00;0.00;;;;;;;;;;5104301;27;20027;-74
2022/10/04 11:26:40;;;;;;;0.00;0.00;;;;;;;;;;5084896;28;20019;-72
2022/10/04 11:29:20;;;;;;;0.00;0.00;;;;;;;;;;5088943;28;20048;-73
2022/10/04 11:31:53;;;;;;;0.45;0.45;;;;;;;;;;5091203;28;20549;-74
2022/10/04 11:34:34;;;;;;;0.00;0.00;;;;;;;;;;5086427;28;20118;-70
2022/10/04 11:37:01;;;;;;;0.00;0.00;;;;;;;;;;5099581;27;20028;-71
2022/10/04 11:39:46;;;;;;;0.00;0.00;;;;;;;;;;5103511;28;20469;-72
2022/10/04 11:42:20;;;;;;;0.00;0.00;;;;;;;;;;5089171;28;20248;-72
2022/10/04 11:44:58;;;;;;;0.00;0.00;;;;;;;;;;5100542;28;20110;-71
2022/10/04 11:47:43;;;;;;;0.00;0.00;;;;;;;;;;5104271;28;20101;-71
2022/10/04 11:50:25;;;;;;;0.00;0.00;;;;;;;;;;5101836;28;20527;-72
2022/10/04 11:52:51;;;;;;;0.00;0.00;;;;;;;;;;5104281;27;20085;-72
2022/10/04 11:55:52;;;;;;;0.15;0.15;;;;;;;;;;5084607;28;20012;-73
2022/10/04 11:58:25;;;;;;;0.10;0.10;;;;;;;;;;5085204;28;20024;-72
2022/10/04 12:01:10;;;;;;;0.00;0.00;;;;;;;;;;5081241;28;20028;-73
2022/10/04 12:03:55;;;;;;;0.00;0.00;;;;;;;;;;5082374;28;20031;-73
2022/10/04 12:06:38;;;;;;;3.40;1.50;;;;;;;;;;5076653;28;20492;-73
2022/10/04 12:09:11;;;;;;;0.00;0.00;;;;;;;;;;5097681;28;20020;-71
2022/10/04 12:14:58;;;;;;;0.00;0.00;;;;;;;;;;5095288;28;20146;-72
2022/10/04 12:17:27;;;;;;;0.00;0.00;;;;;;;;;;5080760;28;20111;-73
2022/10/04 12:20:14;;;;;;;0.35;0.35;;;;;;;;;;5087579;28;20034;-73
2022/10/04 12:22:49;;;;;;;0.00;0.00;;;;;;;;;;5059488;28;20590;-73
2022/10/04 12:25:22;;;;;;;3.50;3.40;;;;;;;;;;5095763;28;20035;-72
2022/10/04 12:27:48;;;;;;;0.00;0.00;;;;;;;;;;5096796;28;20466;-72
2022/10/04 12:30:19;;;;;;;0.00;0.00;;;;;;;;;;5107377;28;20032;-71
2022/10/04 12:32:46;;;;;;;0.00;0.00;;;;;;;;;;5104390;28;20027;-72
2022/10/04 12:35:28;;;;;;;0.00;0.00;;;;;;;;;;5090748;28;20020;-72
2022/10/04 12:38:15;;;;;;;0.00;0.00;;;;;;;;;;5105087;28;20043;-74
2022/10/04 12:40:46;;;;;;;0.10;0.10;;;;;;;;;;5085760;28;20059;-73
2022/10/04 12:43:20;;;;;;;0.00;0.00;;;;;;;;;;5075462;28;20024;-73
2022/10/04 12:46:16;;;;;;;0.45;0.45;;;;;;;;;;5080515;28;20020;-73
2022/10/04 12:49:03;;;;;;;0.00;0.00;;;;;;;;;;4987149;28;20066;-71
2022/10/04 12:51:38;;;;;;;0.00;0.00;;;;;;;;;;5071160;28;20063;-73
2022/10/04 12:54:23;;;;;;;1.13;0.90;;;;;;;;;;5089447;28;20075;-73
2022/10/04 12:56:49;;;;;;;0.00;0.00;;;;;;;;;;5080056;28;20114;-73
2022/10/04 12:59:31;;;;;;;0.88;0.88;;;;;;;;;;5082814;28;20109;-75
2022/10/04 13:02:09;;;;;;;0.00;0.00;;;;;;;;;;5080267;28;20548;-74
2022/10/04 13:04:37;;;;;;;0.00;0.00;;;;;;;;;;5083618;28;20111;-72
2022/10/04 13:07:30;;;;;;;0.10;0.10;;;;;;;;;;5083542;28;20016;-72
2022/10/04 13:09:56;;;;;;;1.98;1.77;;;;;;;;;;5058994;28;20035;-74
2022/10/04 13:12:58;;;;;;;0.00;0.00;;;;;;;;;;5089035;28;20406;-74
2022/10/04 13:15:28;;;;;;;0.05;0.05;;;;;;;;;;5095225;28;20054;-74
2022/10/04 13:18:02;;;;;;;0.00;0.00;;;;;;;;;;5087556;28;20463;-73
2022/10/04 13:20:40;;;;;;;0.00;0.00;;;;;;;;;;5064179;28;20113;-72
2022/10/04 13:23:25;;;;;;;0.28;0.28;;;;;;;;;;5073407;28;20036;-71
2022/10/04 13:26:06;;;;;;;0.00;0.00;;;;;;;;;;5087242;28;20028;-72
2022/10/04 13:28:46;;;;;;;0.32;0.32;;;;;;;;;;5086817;28;20098;-72
2022/10/04 13:31:31;;;;;;;0.00;0.00;;;;;;;;;;5073130;28;20020;-71
2022/10/04 13:34:24;;;;;;;4.03;3.78;;;;;;;;;;5057977;28;20024;-70
2022/10/04 13:37:13;;;;;;;0.00;0.00;;;;;;;;;;5076371;28;20075;-70
2022/10/04 13:39:46;;;;;;;0.00;0.00;;;;;;;;;;5070642;28;20112;-72
2022/10/04 13:42:15;;;;;;;0.10;0.10;;;;;;;;;;5106992;28;20051;-71
2022/10/04 13:45:08;;;;;;;0.00;0.00;;;;;;;;;;5104924;27;20081;-71
2022/10/04 13:47:53;;;;;;;0.00;0.00;;;;;;;;;;5086349;28;20501;-70
2022/10/04 13:50:38;;;;;;;0.00;0.00;;;;;;;;;;5094808;28;20095;-71
2022/10/04 13:59:13;;;;;;;0.00;0.00;;;;;;;;;;5113947;28;20034;-70
2022/10/04 14:02:02;;;;;;;0.00;0.00;;;;;;;;;;5111614;28;20028;-72
2022/10/04 14:04:38;;;;;;;0.00;0.00;;;;;;;;;;5108972;28;20073;-71
2022/10/04 14:07:07;;;;;;;0.00;0.00;;;;;;;;;;5101477;28;20038;-73
2022/10/04 14:09:46;;;;;;;0.00;0.00;;;;;;;;;;5089140;28;20032;-72
2022/10/04 14:12:24;;;;;;;3.30;3.10;;;;;;;;;;5103261;28;20020;-71
2022/10/04 14:14:54;;;;;;;0.38;0.38;;;;;;;;;;5105916;28;20259;-71
2022/10/04 14:17:40;;;;;;;0.00;0.00;;;;;;;;;;5099221;28;20078;-71
2022/10/04 14:20:25;;;;;;;0.00;0.00;;;;;;;;;;5089409;28;20399;-72
2022/10/04 14:23:00;;;;;;;0.00;0.00;;;;;;;;;;5113629;28;20037;-71
2022/10/04 14:25:26;;;;;;;0.00;0.00;;;;;;;;;;5102645;28;20024;-71
2022/10/04 14:28:12;;;;;;;0.00;0.00;;;;;;;;;;5107949;27;20028;-72
2022/10/04 14:30:57;;;;;;;0.00;0.00;;;;;;;;;;5116493;28;20031;-72
2022/10/04 14:33:44;;;;;;;0.00;0.00;;;;;;;;;;5132250;27;20018;-71
2022/10/04 14:36:19;;;;;;;0.00;0.00;;;;;;;;;;5105412;28;20023;-71
2022/10/04 14:39:04;;;;;;;0.00;0.00;;;;;;;;;;5081911;28;20024;-73
2022/10/04 14:41:30;;;;;;;0.00;0.00;;;;;;;;;;5101618;28;20040;-71
2022/10/04 14:44:06;;;;;;;0.00;0.00;;;;;;;;;;5105903;28;20492;-73
2022/10/04 14:46:51;;;;;;;1.77;1.67;;;;;;;;;;5095177;28;20482;-71
2022/10/04 14:49:29;;;;;;;0.00;0.00;;;;;;;;;;5108508;28;20024;-71
2022/10/04 14:52:15;;;;;;;0.00;0.00;;;;;;;;;;5095032;28;20030;-73
2022/10/04 14:55:04;;;;;;;0.00;0.00;;;;;;;;;;5121031;27;20032;-72
2022/10/04 14:57:49;;;;;;;0.00;0.00;;;;;;;;;;5077691;27;20406;-72
2022/10/04 15:00:25;;;;;;;0.00;0.00;;;;;;;;;;5117830;27;20027;-71
2022/10/04 15:03:18;;;;;;;0.00;0.00;;;;;;;;;;5111431;27;20088;-71
2022/10/04 15:05:58;;;;;;;0.47;0.47;;;;;;;;;;5109375;27;20070;-71
2022/10/04 15:08:34;;;;;;;0.00;0.00;;;;;;;;;;5095578;28;20020;-71
2022/10/04 15:11:03;;;;;;;0.00;0.00;;;;;;;;;;5094401;28;20020;-71
2022/10/04 15:13:35;;;;;;;0.10;0.10;;;;;;;;;;5112031;27;20023;-72
2022/10/04 15:16:04;;;;;;;0.00;0.00;;;;;;;;;;5119928;27;20025;-72
2022/10/04 15:18:36;;;;;;;0.47;0.47;;;;;;;;;;5104303;28;20027;-72
2022/10/04 15:21:06;;;;;;;0.05;0.05;;;;;;;;;;5100061;28;20031;-72
2022/10/04 15:23:39;;;;;;;0.00;0.00;;;;;;;;;;5110210;28;20028;-71
2022/10/04 15:26:13;;;;;;;1.98;1.05;;;;;;;;;;5082924;28;20028;-72
2022/10/04 15:28:52;;;;;;;0.40;0.40;;;;;;;;;;5093846;27;20035;-71
2022/10/04 15:31:21;;;;;;;0.57;0.57;;;;;;;;;;5122781;27;20023;-71
2022/10/04 15:33:56;;;;;;;0.35;0.35;;;;;;;;;;5126519;27;20026;-72
2022/10/04 15:36:27;;;;;;;0.10;0.10;;;;;;;;;;5124947;27;20023;-72
2022/10/04 15:39:03;;;;;;;4.45;1.50;;;;;;;;;;5097797;28;20363;-71
2022/10/04 15:41:38;;;;;;;0.00;0.00;;;;;;;;;;5104614;27;20490;-72
2022/10/04 15:44:12;;;;;;;7.78;5.32;;;;;;;;;;5132127;27;20027;-72
2022/10/04 15:46:58;;;;;;;12.77;7.13;;;;;;;;;;5076315;28;20020;-71
2022/10/04 15:49:47;;;;;;;8.38;4.43;;;;;;;;;;5096033;28;20031;-72